createdAt,value
2018-03-09T00:01:18.011Z,99.90
2018-03-09T00:03:46.419Z,99.90
2018-03-09T00:06:14.090Z,99.90
2018-03-09T00:08:41.735Z,99.90
2018-03-09T00:11:09.455Z,99.90
2018-03-09T00:13:37.153Z,99.90
2018-03-09T00:16:04.823Z,99.90
2018-03-09T00:18:32.514Z,99.90
2018-03-09T00:21:00.191Z,99.90
2018-03-09T00:23:28.814Z,99.90
2018-03-09T00:25:57.246Z,99.90
2018-03-09T00:28:24.934Z,99.90
2018-03-09T00:30:52.584Z,99.90
2018-03-09T00:33:23.584Z,99.90
2018-03-09T00:35:51.281Z,99.90
2018-03-09T00:38:19.912Z,99.90
2018-03-09T00:40:47.604Z,99.90
2018-03-09T00:43:15.311Z,99.90
2018-03-09T00:45:43.005Z,99.90
2018-03-09T00:48:11.402Z,99.90
2018-03-09T00:50:39.507Z,99.90
2018-03-09T00:53:11.988Z,99.90
2018-03-09T00:55:39.657Z,99.90
2018-03-09T00:58:07.303Z,99.90
2018-03-09T01:00:34.961Z,99.90
2018-03-09T01:03:02.655Z,99.90
2018-03-09T01:05:31.137Z,99.90
2018-03-09T01:07:59.569Z,99.90
2018-03-09T01:10:27.264Z,99.90
2018-03-09T01:12:55.709Z,99.90
2018-03-09T01:15:23.375Z,99.90
2018-03-09T01:17:51.068Z,99.90
2018-03-09T01:20:18.741Z,99.90
2018-03-09T01:22:47.167Z,99.90
2018-03-09T01:25:14.841Z,99.90
2018-03-09T01:27:42.523Z,99.90
2018-03-09T01:30:10.201Z,99.90
2018-03-09T01:32:37.861Z,99.90
2018-03-09T01:35:06.297Z,99.90
2018-03-09T01:37:34.020Z,99.90
2018-03-09T01:40:01.687Z,99.90
2018-03-09T01:42:29.347Z,99.90
2018-03-09T01:44:57.024Z,99.90
2018-03-09T01:47:24.702Z,99.90
2018-03-09T01:49:52.452Z,99.90
2018-03-09T01:52:31.949Z,99.90
2018-03-09T01:55:00.213Z,99.90
2018-03-09T01:57:28.786Z,99.90
2018-03-09T01:59:56.461Z,99.90
2018-03-09T02:02:24.114Z,99.90
2018-03-09T02:04:51.773Z,99.90
2018-03-09T02:07:20.950Z,99.90
2018-03-09T02:09:48.622Z,99.90
2018-03-09T02:12:16.302Z,99.90
2018-03-09T02:14:44.013Z,99.90
2018-03-09T02:17:11.984Z,99.90
2018-03-09T02:19:39.645Z,99.90
2018-03-09T02:22:07.317Z,99.90
2018-03-09T02:24:34.985Z,99.90
2018-03-09T02:27:02.656Z,99.90
2018-03-09T02:29:30.323Z,99.90
2018-03-09T02:31:57.981Z,99.90
2018-03-09T02:34:25.654Z,99.90
2018-03-09T02:36:53.317Z,99.90
2018-03-09T02:39:20.968Z,99.90
2018-03-09T02:41:48.622Z,99.90
2018-03-09T02:44:16.279Z,99.90
2018-03-09T02:46:43.962Z,99.90
2018-03-09T02:49:11.610Z,99.90
2018-03-09T02:51:39.279Z,99.90
2018-03-09T02:54:06.908Z,99.90
2018-03-09T02:56:34.537Z,99.90
2018-03-09T02:59:02.938Z,99.90
2018-03-09T03:01:30.587Z,99.90
2018-03-09T03:03:58.232Z,99.90
2018-03-09T03:06:26.658Z,99.90
2018-03-09T03:08:54.315Z,99.90
2018-03-09T03:11:21.964Z,99.90
2018-03-09T03:13:49.611Z,99.90
2018-03-09T03:16:17.270Z,99.90
2018-03-09T03:18:44.910Z,99.90
2018-03-09T03:21:13.356Z,99.90
2018-03-09T03:23:40.967Z,99.90
2018-03-09T03:26:08.643Z,99.90
2018-03-09T03:28:36.293Z,99.90
2018-03-09T03:31:03.935Z,99.90
2018-03-09T03:33:32.358Z,99.90
2018-03-09T03:35:59.987Z,99.90
2018-03-09T03:38:28.379Z,99.90
2018-03-09T03:40:56.024Z,99.90
2018-03-09T03:43:24.419Z,99.90
2018-03-09T03:45:52.050Z,99.90
2018-03-09T03:48:20.455Z,99.90
2018-03-09T03:50:48.104Z,99.90
2018-03-09T03:53:16.481Z,99.90
2018-03-09T03:55:44.875Z,99.90
2018-03-09T03:58:12.513Z,99.90
2018-03-09T04:00:40.932Z,99.90
2018-03-09T04:03:08.564Z,99.90
2018-03-09T04:05:39.867Z,99.90
2018-03-09T04:08:07.530Z,99.90
2018-03-09T04:10:35.148Z,99.90
2018-03-09T04:13:02.810Z,99.90
2018-03-09T04:15:30.455Z,99.90
2018-03-09T04:17:58.128Z,99.90
2018-03-09T04:20:26.540Z,99.90
2018-03-09T04:22:54.151Z,99.90
2018-03-09T04:25:21.821Z,99.90
2018-03-09T04:27:49.456Z,99.90
2018-03-09T04:30:17.096Z,99.90
2018-03-09T04:32:44.724Z,99.90
2018-03-09T04:35:12.372Z,99.90
2018-03-09T04:37:40.023Z,99.90
2018-03-09T04:40:07.657Z,99.90
2018-03-09T04:42:35.263Z,99.90
2018-03-09T04:45:02.916Z,99.90
2018-03-09T04:47:30.541Z,99.90
2018-03-09T04:49:58.945Z,99.90
2018-03-09T04:52:26.583Z,99.90
2018-03-09T04:54:54.228Z,99.90
2018-03-09T04:57:21.864Z,99.90
2018-03-09T04:59:49.493Z,99.90
2018-03-09T05:02:17.098Z,99.90
2018-03-09T05:04:44.740Z,99.90
2018-03-09T05:07:12.380Z,99.90
2018-03-09T05:09:40.011Z,99.90
2018-03-09T05:12:08.408Z,99.90
2018-03-09T05:14:36.055Z,99.90
2018-03-09T05:17:03.692Z,99.90
2018-03-09T05:19:31.331Z,99.90
2018-03-09T05:21:58.952Z,99.90
2018-03-09T05:24:26.588Z,99.90
2018-03-09T05:26:54.994Z,99.90
2018-03-09T05:29:22.621Z,99.90
2018-03-09T05:31:50.272Z,99.90
2018-03-09T05:34:20.812Z,99.90
2018-03-09T05:36:48.456Z,99.90
2018-03-09T05:39:16.890Z,99.90
2018-03-09T05:41:44.540Z,99.90
2018-03-09T05:44:16.080Z,99.90
2018-03-09T05:46:44.481Z,99.90
2018-03-09T05:49:35.374Z,99.90
2018-03-09T05:52:03.008Z,99.90
2018-03-09T05:54:45.367Z,99.90
2018-03-09T05:57:13.019Z,99.90
2018-03-09T06:05:33.495Z,99.90
2018-03-09T06:08:01.074Z,99.90
2018-03-09T06:10:33.166Z,99.90
2018-03-09T06:13:00.788Z,99.90
2018-03-09T06:18:28.161Z,99.90
2018-03-09T06:20:55.818Z,99.90
2018-03-09T06:23:37.591Z,99.90
2018-03-09T06:26:05.269Z,99.90
2018-03-09T06:31:28.073Z,99.90
2018-03-09T06:33:55.694Z,99.90
2018-03-09T06:36:37.861Z,99.90
2018-03-09T06:39:05.505Z,99.90
2018-03-09T06:44:36.494Z,99.90
2018-03-09T06:47:04.157Z,99.90
2018-03-09T06:49:33.837Z,99.90
2018-03-09T06:52:01.481Z,99.90
2018-03-09T06:54:29.174Z,99.90
2018-03-09T06:56:56.824Z,99.90
2018-03-09T06:59:24.440Z,99.90
2018-03-09T07:01:52.890Z,99.90
2018-03-09T07:04:20.527Z,99.90
2018-03-09T07:06:48.144Z,99.90
2018-03-09T07:09:16.561Z,99.90
2018-03-09T07:11:44.162Z,99.90
2018-03-09T07:14:12.748Z,99.90
2018-03-09T07:16:40.393Z,99.90
2018-03-09T07:19:08.063Z,99.90
2018-03-09T07:21:35.737Z,99.90
2018-03-09T07:24:03.378Z,99.90
2018-03-09T07:26:31.037Z,99.90
2018-03-09T07:28:58.642Z,99.90
2018-03-09T07:31:27.063Z,99.90
2018-03-09T07:33:54.690Z,99.90
2018-03-09T07:36:22.359Z,99.90
2018-03-09T07:38:49.983Z,99.90
2018-03-09T07:41:17.609Z,99.90
2018-03-09T07:43:45.245Z,99.90
2018-03-09T07:46:12.868Z,99.90
2018-03-09T07:48:41.274Z,99.90
2018-03-09T07:51:08.886Z,99.90
2018-03-09T07:53:36.558Z,99.90
2018-03-09T07:56:04.214Z,99.90
2018-03-09T07:58:31.874Z,99.90
2018-03-09T08:01:00.341Z,99.90
2018-03-09T08:03:28.014Z,99.90
2018-03-09T08:05:56.522Z,99.90
2018-03-09T08:08:24.954Z,99.90
2018-03-09T08:10:52.639Z,99.90
2018-03-09T08:13:20.304Z,99.90
2018-03-09T08:15:47.952Z,99.90
2018-03-09T08:18:15.641Z,99.90
2018-03-09T08:20:44.071Z,99.90
2018-03-09T08:23:11.748Z,99.90
2018-03-09T08:25:39.400Z,99.90
2018-03-09T08:28:07.041Z,99.90
2018-03-09T08:30:34.705Z,99.90
2018-03-09T08:33:02.386Z,99.90
2018-03-09T08:35:30.068Z,99.90
2018-03-09T08:37:57.740Z,99.90
2018-03-09T08:40:25.465Z,99.90
2018-03-09T08:42:53.126Z,99.90
2018-03-09T08:45:20.825Z,99.90
2018-03-09T08:47:51.824Z,99.90
2018-03-09T08:50:19.486Z,99.90
2018-03-09T08:52:47.148Z,99.90
2018-03-09T08:55:14.804Z,99.90
2018-03-09T08:57:42.491Z,99.90
2018-03-09T09:00:10.161Z,99.90
2018-03-09T09:02:37.819Z,99.90
2018-03-09T09:05:05.499Z,99.90
2018-03-09T09:07:33.910Z,99.90
2018-03-09T09:10:01.600Z,99.90
2018-03-09T09:12:29.257Z,99.90
2018-03-09T09:14:56.921Z,99.90
2018-03-09T09:17:24.591Z,99.90
2018-03-09T09:19:52.265Z,99.90
2018-03-09T09:22:19.968Z,99.90
2018-03-09T09:24:47.613Z,99.90
2018-03-09T09:27:16.076Z,99.90
2018-03-09T09:29:43.736Z,99.90
2018-03-09T09:32:14.328Z,99.90
2018-03-09T09:34:41.952Z,99.90
2018-03-09T09:37:10.378Z,99.90
2018-03-09T09:39:38.057Z,99.90
2018-03-09T09:42:05.707Z,99.90
2018-03-09T09:44:33.389Z,99.50
2018-03-09T09:47:01.090Z,99.90
2018-03-09T09:49:28.764Z,99.90
2018-03-09T09:51:57.456Z,99.90
2018-03-09T09:54:25.093Z,99.60
2018-03-09T09:56:52.784Z,99.70
2018-03-09T09:59:20.425Z,99.80
2018-03-09T10:01:48.089Z,99.20
2018-03-09T10:04:15.753Z,99.70
2018-03-09T10:06:43.433Z,99.60
2018-03-09T10:09:11.077Z,99.70
2018-03-09T10:11:38.742Z,99.90
2018-03-09T10:14:06.382Z,99.80
2018-03-09T10:16:34.808Z,99.80
2018-03-09T10:19:02.471Z,99.80
2018-03-09T10:21:30.138Z,99.60
2018-03-09T10:23:57.776Z,99.50
2018-03-09T10:26:25.451Z,99.90
2018-03-09T10:28:53.107Z,99.90
2018-03-09T10:31:20.780Z,99.70
2018-03-09T10:33:48.427Z,99.90
2018-03-09T10:36:16.095Z,99.70
2018-03-09T10:38:43.768Z,99.60
2018-03-09T10:41:11.430Z,99.90
2018-03-09T10:43:39.130Z,99.90
2018-03-09T10:46:07.572Z,99.10
2018-03-09T10:48:35.230Z,99.10
2018-03-09T10:51:02.882Z,99.70
2018-03-09T10:53:30.572Z,99.30
2018-03-09T10:55:58.232Z,99.10
2018-03-09T10:58:25.907Z,98.10
2018-03-09T11:00:54.335Z,99.20
2018-03-09T11:03:21.998Z,99.20
2018-03-09T11:05:49.660Z,99.80
2018-03-09T11:08:17.321Z,98.80
2018-03-09T11:10:45.006Z,98.30
2018-03-09T11:13:12.662Z,98.70
2018-03-09T11:15:40.313Z,98.30
2018-03-09T11:18:08.017Z,98.20
2018-03-09T11:20:36.423Z,98.40
2018-03-09T11:23:04.078Z,98.30
2018-03-09T11:25:31.732Z,98.10
2018-03-09T11:27:59.370Z,98.40
2018-03-09T11:30:27.011Z,97.90
2018-03-09T11:32:54.647Z,98.20
2018-03-09T11:35:22.283Z,98.20
2018-03-09T11:37:50.679Z,98.10
2018-03-09T11:40:18.351Z,98.10
2018-03-09T11:42:46.026Z,98.50
2018-03-09T11:45:13.658Z,98.40
2018-03-09T11:47:41.348Z,98.90
2018-03-09T11:50:09.005Z,98.30
2018-03-09T11:52:36.660Z,98.00
2018-03-09T11:55:04.320Z,98.70
2018-03-09T11:57:31.978Z,98.40
2018-03-09T11:59:59.664Z,98.30
2018-03-09T12:02:27.318Z,97.70
2018-03-09T12:04:54.965Z,97.80
2018-03-09T12:07:22.631Z,97.60
2018-03-09T12:09:50.304Z,97.60
2018-03-09T12:12:17.976Z,98.00
2018-03-09T12:14:45.657Z,98.20
2018-03-09T12:17:13.288Z,97.50
2018-03-09T12:19:40.968Z,97.10
2018-03-09T12:22:08.611Z,97.40
2018-03-09T12:24:36.335Z,97.30
2018-03-09T12:27:03.998Z,96.90
2018-03-09T12:29:31.667Z,97.30
2018-03-09T12:31:59.343Z,96.20
2018-03-09T12:34:26.998Z,97.10
2018-03-09T12:36:54.690Z,96.90
2018-03-09T12:39:22.331Z,96.00
2018-03-09T12:41:49.975Z,96.90
2018-03-09T12:44:18.663Z,96.40
2018-03-09T12:46:46.299Z,96.60
2018-03-09T12:49:14.007Z,96.90
2018-03-09T12:51:41.659Z,96.60
2018-03-09T12:54:09.345Z,96.90
2018-03-09T12:56:37.009Z,96.10
2018-03-09T12:59:04.708Z,96.50
2018-03-09T13:01:32.389Z,95.90
2018-03-09T13:04:00.033Z,95.70
2018-03-09T13:06:27.667Z,95.50
2018-03-09T13:08:56.100Z,95.00
2018-03-09T13:11:25.311Z,93.60
2018-03-09T13:14:11.765Z,93.60
2018-03-09T13:16:41.388Z,93.50
2018-03-09T13:19:08.986Z,94.00
2018-03-09T13:21:36.681Z,94.10
2018-03-09T13:24:04.307Z,93.40
2018-03-09T13:26:31.914Z,93.30
2018-03-09T13:29:00.255Z,94.20
2018-03-09T13:31:27.823Z,94.20
2018-03-09T13:33:55.454Z,93.70
2018-03-09T13:36:23.029Z,95.00
2018-03-09T13:38:50.643Z,94.90
2018-03-09T13:41:18.249Z,94.80
2018-03-09T13:43:45.839Z,95.10
2018-03-09T13:46:14.220Z,94.10
2018-03-09T13:48:42.584Z,93.60
2018-03-09T13:51:11.188Z,93.60
2018-03-09T13:53:39.538Z,94.70
2018-03-09T13:56:07.125Z,94.70
2018-03-09T13:58:35.483Z,94.30
2018-03-09T14:01:04.029Z,94.30
2018-03-09T14:03:31.628Z,94.80
2018-03-09T14:05:59.203Z,93.30
2018-03-09T14:08:27.540Z,94.40
2018-03-09T14:10:55.156Z,94.40
2018-03-09T14:13:22.733Z,94.20
2018-03-09T14:15:50.351Z,93.10
2018-03-09T14:18:18.726Z,92.20
2018-03-09T14:20:47.179Z,92.50
2018-03-09T14:23:15.462Z,90.20
2018-03-09T14:25:43.034Z,90.50
2018-03-09T14:28:10.650Z,91.60
2018-03-09T14:30:38.238Z,91.30
2018-03-09T14:33:05.835Z,91.00
2018-03-09T14:35:34.218Z,91.00
2018-03-09T14:38:01.799Z,91.00
2018-03-09T14:40:29.439Z,91.00
2018-03-09T14:42:57.022Z,90.80
2018-03-09T14:45:24.665Z,91.40
2018-03-09T14:47:52.299Z,91.80
2018-03-09T14:50:20.673Z,90.80
2018-03-09T14:52:48.298Z,90.70
2018-03-09T14:55:15.878Z,91.00
2018-03-09T14:57:43.456Z,91.60
2018-03-09T15:00:11.852Z,91.40
2018-03-09T15:02:39.472Z,91.40
2018-03-09T15:05:07.148Z,91.60
2018-03-09T15:07:34.750Z,91.90
2018-03-09T15:10:02.351Z,91.80
2018-03-09T15:12:29.981Z,91.70
2018-03-09T15:14:57.563Z,91.90
2018-03-09T15:17:25.190Z,92.10
2018-03-09T15:19:52.777Z,92.50
2018-03-09T15:22:20.367Z,92.60
2018-03-09T15:24:47.990Z,93.00
2018-03-09T15:27:15.575Z,93.10
2018-03-09T15:29:43.185Z,93.30
2018-03-09T15:32:12.690Z,93.20
2018-03-09T15:34:40.261Z,92.90
2018-03-09T15:37:07.874Z,92.80
2018-03-09T15:39:35.460Z,93.30
2018-03-09T15:42:03.081Z,93.30
2018-03-09T15:44:30.681Z,92.40
2018-03-09T15:46:58.334Z,92.10
2018-03-09T15:49:25.924Z,91.80
2018-03-09T15:51:53.542Z,92.20
2018-03-09T15:54:21.908Z,93.50
2018-03-09T15:56:49.525Z,93.80
2018-03-09T15:59:17.109Z,93.80
2018-03-09T16:01:44.758Z,94.50
2018-03-09T16:04:12.414Z,94.40
2018-03-09T16:06:40.036Z,94.40
2018-03-09T16:09:07.653Z,94.50
2018-03-09T16:11:35.243Z,94.60
2018-03-09T16:14:03.660Z,94.50
2018-03-09T16:16:31.248Z,94.50
2018-03-09T16:18:58.888Z,94.50
2018-03-09T16:21:26.467Z,94.50
2018-03-09T16:23:54.056Z,94.60
2018-03-09T16:26:22.561Z,94.30
2018-03-09T16:28:50.152Z,94.30
2018-03-09T16:31:17.774Z,94.60
2018-03-09T16:33:45.402Z,94.60
2018-03-09T16:36:13.044Z,94.90
2018-03-09T16:38:40.641Z,95.00
2018-03-09T16:41:09.025Z,95.60
2018-03-09T16:43:37.417Z,95.90
2018-03-09T16:46:05.014Z,95.80
2018-03-09T16:48:32.645Z,96.50
2018-03-09T16:51:00.270Z,96.40
2018-03-09T16:53:28.664Z,96.70
2018-03-09T16:55:57.051Z,96.70
2018-03-09T16:58:24.646Z,96.70
2018-03-09T17:00:52.268Z,96.80
2018-03-09T17:03:19.853Z,96.80
2018-03-09T17:05:47.485Z,96.90
2018-03-09T17:08:15.075Z,96.90
2018-03-09T17:10:42.667Z,97.00
2018-03-09T17:13:10.279Z,97.20
2018-03-09T17:15:37.901Z,97.10
2018-03-09T17:18:05.502Z,97.20
2018-03-09T17:20:33.083Z,97.20
2018-03-09T17:23:00.679Z,97.30
2018-03-09T17:25:28.278Z,97.20
2018-03-09T17:27:55.900Z,97.20
2018-03-09T17:30:23.507Z,97.90
2018-03-09T17:32:51.134Z,98.30
2018-03-09T17:35:19.487Z,98.00
2018-03-09T17:37:47.099Z,98.00
2018-03-09T17:40:14.698Z,98.00
2018-03-09T17:42:42.302Z,98.30
2018-03-09T17:45:09.941Z,99.00
2018-03-09T17:47:38.315Z,99.10
2018-03-09T17:50:07.740Z,99.60
2018-03-09T17:52:35.344Z,99.60
2018-03-09T17:55:02.973Z,99.70
2018-03-09T17:57:30.593Z,99.50
2018-03-09T18:00:02.351Z,99.40
2018-03-09T18:02:30.034Z,99.40
2018-03-09T18:04:59.391Z,99.50
2018-03-09T18:07:27.155Z,99.50
2018-03-09T18:09:54.838Z,99.00
2018-03-09T18:12:22.850Z,99.60
2018-03-09T18:14:51.440Z,99.90
2018-03-09T18:17:19.114Z,99.90
2018-03-09T18:19:46.757Z,99.90
2018-03-09T18:22:16.409Z,99.60
2018-03-09T18:24:45.076Z,99.90
2018-03-09T18:27:12.687Z,99.90
2018-03-09T18:29:40.302Z,99.80
2018-03-09T18:32:07.919Z,99.70
2018-03-09T18:34:36.483Z,99.90
2018-03-09T18:37:04.176Z,99.90
2018-03-09T18:39:31.778Z,99.90
2018-03-09T18:41:59.442Z,99.90
2018-03-09T18:44:27.019Z,99.90
2018-03-09T18:46:55.389Z,99.90
2018-03-09T18:49:23.020Z,99.90
2018-03-09T18:51:50.651Z,99.90
2018-03-09T18:54:18.248Z,99.90
2018-03-09T18:56:46.640Z,99.90
2018-03-09T18:59:14.233Z,99.90
2018-03-09T19:01:42.602Z,99.90
2018-03-09T19:04:10.990Z,99.90
2018-03-09T19:06:39.340Z,99.90
2018-03-09T19:09:06.967Z,99.90
2018-03-09T19:11:34.555Z,99.90
2018-03-09T19:14:02.157Z,99.90
2018-03-09T19:16:29.783Z,99.90
2018-03-09T19:18:57.359Z,99.90
2018-03-09T19:21:25.711Z,99.90
2018-03-09T19:23:53.328Z,99.90
2018-03-09T19:26:20.910Z,99.90
2018-03-09T19:28:48.527Z,99.90
2018-03-09T19:31:16.154Z,99.90
2018-03-09T19:33:43.733Z,99.90
2018-03-09T19:36:12.077Z,99.90
2018-03-09T19:38:39.676Z,99.90
2018-03-09T19:41:08.029Z,99.90
2018-03-09T19:43:35.651Z,99.90
2018-03-09T19:46:03.232Z,99.90
2018-03-09T19:48:30.820Z,99.90
2018-03-09T19:50:58.444Z,99.90
2018-03-09T19:53:26.056Z,99.90
2018-03-09T19:55:54.635Z,99.90
2018-03-09T19:58:23.094Z,99.90
2018-03-09T20:00:50.780Z,99.90
2018-03-09T20:03:18.429Z,99.90
2018-03-09T20:05:46.790Z,99.90
2018-03-09T20:08:14.413Z,99.90
2018-03-09T20:10:42.033Z,99.90
2018-03-09T20:13:10.480Z,99.90
2018-03-09T20:15:38.160Z,99.90
2018-03-09T20:18:06.509Z,99.90
2018-03-09T20:20:34.214Z,99.90
2018-03-09T20:23:02.576Z,99.90
2018-03-09T20:25:30.217Z,99.90
2018-03-09T20:27:57.828Z,99.90
2018-03-09T20:30:25.440Z,99.90
2018-03-09T20:32:53.030Z,99.90
2018-03-09T20:35:21.375Z,99.90
2018-03-09T20:37:48.987Z,99.90
2018-03-09T20:40:16.573Z,99.90
2018-03-09T20:42:44.229Z,99.90
2018-03-09T20:45:12.540Z,99.90
2018-03-09T20:47:40.231Z,99.90
2018-03-09T20:50:07.784Z,99.90
2018-03-09T20:52:38.442Z,99.90
2018-03-09T20:55:06.068Z,99.90
2018-03-09T20:57:34.423Z,99.90
2018-03-09T21:00:02.092Z,99.90
2018-03-09T21:02:29.747Z,99.90
2018-03-09T21:04:57.394Z,99.90
2018-03-09T21:07:25.000Z,99.90
2018-03-09T21:09:53.358Z,99.90
2018-03-09T21:12:21.007Z,99.90
2018-03-09T21:14:48.624Z,99.90
2018-03-09T21:17:17.132Z,99.90
2018-03-09T21:19:44.734Z,99.90
2018-03-09T21:22:13.086Z,99.90
2018-03-09T21:24:40.702Z,99.90
2018-03-09T21:27:08.272Z,99.90
2018-03-09T21:29:36.056Z,99.90
2018-03-09T21:32:03.568Z,99.90
2018-03-09T21:34:31.168Z,99.90
2018-03-09T21:36:58.795Z,99.90
2018-03-09T21:39:26.463Z,99.90
2018-03-09T21:41:54.069Z,99.90
2018-03-09T21:44:21.681Z,99.90
2018-03-09T21:46:49.313Z,99.90
2018-03-09T21:49:17.657Z,99.90
2018-03-09T21:51:47.253Z,99.90
2018-03-09T21:54:14.859Z,99.90
2018-03-09T21:56:43.201Z,99.90
2018-03-09T21:59:10.803Z,99.90
2018-03-09T22:01:39.153Z,99.90
2018-03-09T22:04:06.806Z,99.90
2018-03-09T22:06:34.430Z,99.90
2018-03-09T22:09:02.078Z,99.90
2018-03-09T22:11:30.437Z,99.90
2018-03-09T22:13:58.835Z,99.90
2018-03-09T22:16:26.443Z,99.90
2018-03-09T22:18:54.040Z,99.90
2018-03-09T22:21:21.673Z,99.90
2018-03-09T22:23:49.277Z,99.90
2018-03-09T22:26:16.873Z,99.90
2018-03-09T22:28:44.482Z,99.90
2018-03-09T22:31:12.845Z,99.90
2018-03-09T22:33:40.439Z,99.90
2018-03-09T22:36:08.047Z,99.90
2018-03-09T22:38:35.655Z,99.90
2018-03-09T22:41:03.270Z,99.90
2018-03-09T22:43:30.864Z,99.90
2018-03-09T22:46:00.233Z,99.90
2018-03-09T22:48:27.828Z,99.90
2018-03-09T22:50:55.403Z,99.90
2018-03-09T22:53:23.010Z,99.90
2018-03-09T22:55:50.609Z,99.90
2018-03-09T22:58:18.219Z,99.90
2018-03-09T23:00:45.861Z,99.90
2018-03-09T23:03:13.419Z,99.90
2018-03-09T23:05:41.859Z,99.90
2018-03-09T23:08:10.222Z,99.90
2018-03-09T23:10:38.601Z,99.90
2018-03-09T23:13:06.973Z,99.90
2018-03-09T23:15:34.608Z,99.90
2018-03-09T23:18:02.178Z,99.90
2018-03-09T23:20:29.789Z,99.90
2018-03-09T23:22:57.407Z,99.90
2018-03-09T23:25:25.008Z,99.90
2018-03-09T23:27:52.629Z,99.90
2018-03-09T23:30:20.219Z,99.90
2018-03-09T23:32:47.846Z,99.90
2018-03-09T23:35:15.430Z,99.90
2018-03-09T23:37:43.782Z,99.90
2018-03-09T23:40:11.380Z,99.90
2018-03-09T23:42:38.984Z,99.90
2018-03-09T23:45:06.591Z,99.90
2018-03-09T23:47:34.957Z,99.90
2018-03-09T23:50:03.348Z,99.90
2018-03-09T23:52:31.693Z,99.90
2018-03-09T23:54:59.772Z,99.90
2018-03-09T23:57:27.395Z,99.90
2018-03-09T23:59:54.992Z,99.90
